createdAt,value
2023-03-06T00:01:01.427Z,6.70
2023-03-06T00:03:33.978Z,6.70
2023-03-06T00:06:04.913Z,6.60
2023-03-06T00:08:35.492Z,6.70
2023-03-06T00:11:09.350Z,6.70
2023-03-06T00:13:40.441Z,6.70
2023-03-06T00:16:11.799Z,6.70
2023-03-06T00:18:44.460Z,6.60
2023-03-06T00:21:14.911Z,6.70
2023-03-06T00:23:45.780Z,6.60
2023-03-06T00:26:19.227Z,6.60
2023-03-06T00:28:50.990Z,6.60
2023-03-06T00:31:21.813Z,6.60
2023-03-06T00:33:52.934Z,6.60
2023-03-06T00:36:23.343Z,6.60
2023-03-06T00:38:53.834Z,6.60
2023-03-06T00:41:27.383Z,6.70
2023-03-06T00:43:58.409Z,6.50
2023-03-06T00:46:28.852Z,6.50
2023-03-06T00:48:59.915Z,6.50
2023-03-06T00:51:30.801Z,6.60
2023-03-06T00:54:01.643Z,6.60
2023-03-06T00:56:35.057Z,6.50
2023-03-06T00:59:05.765Z,6.50
2023-03-06T01:01:38.955Z,6.60
2023-03-06T01:04:09.826Z,6.60
2023-03-06T01:06:40.299Z,6.50
2023-03-06T01:09:11.443Z,6.50
2023-03-06T01:11:44.758Z,6.50
2023-03-06T01:14:16.034Z,6.50
2023-03-06T01:16:49.646Z,6.50
2023-03-06T01:19:20.887Z,6.60
2023-03-06T01:21:51.201Z,6.50
2023-03-06T01:24:24.240Z,6.50
2023-03-06T01:26:57.454Z,6.50
2023-03-06T01:29:28.461Z,6.50
2023-03-06T01:32:09.261Z,6.50
2023-03-06T01:34:40.315Z,6.60
2023-03-06T01:37:10.782Z,6.50
2023-03-06T01:39:41.677Z,6.50
2023-03-06T01:42:14.997Z,6.50
2023-03-06T01:45:07.232Z,6.50
2023-03-06T01:47:39.159Z,6.50
2023-03-06T01:50:11.927Z,6.50
2023-03-06T01:52:49.084Z,6.60
2023-03-06T01:55:22.820Z,6.60
2023-03-06T01:58:00.696Z,6.60
2023-03-06T02:00:33.757Z,6.50
2023-03-06T02:03:11.423Z,6.50
2023-03-06T02:05:43.666Z,6.50
2023-03-06T02:08:17.667Z,6.50
2023-03-06T02:11:09.031Z,6.50
2023-03-06T02:13:43.480Z,6.50
2023-03-06T02:16:15.426Z,6.50
2023-03-06T02:18:49.043Z,6.50
2023-03-06T02:21:25.105Z,6.40
2023-03-06T02:24:08.052Z,6.30
2023-03-06T02:26:42.277Z,6.40
2023-03-06T02:29:14.166Z,6.40
2023-03-06T02:31:45.920Z,6.40
2023-03-06T02:34:46.209Z,6.40
2023-03-06T02:37:19.673Z,6.40
2023-03-06T02:39:55.322Z,6.40
2023-03-06T02:42:32.111Z,6.40
2023-03-06T02:45:05.415Z,6.30
2023-03-06T02:47:36.475Z,6.30
2023-03-06T02:50:07.339Z,6.30
2023-03-06T02:52:38.292Z,6.40
2023-03-06T02:55:10.162Z,6.40
2023-03-06T02:57:43.744Z,6.40
2023-03-06T03:00:16.460Z,6.30
2023-03-06T03:02:47.881Z,6.30
2023-03-06T03:05:18.953Z,6.40
2023-03-06T03:07:54.467Z,6.30
2023-03-06T03:10:25.513Z,6.30
2023-03-06T03:12:59.240Z,6.10
2023-03-06T03:15:30.678Z,6.20
2023-03-06T03:18:01.378Z,6.30
2023-03-06T03:20:32.632Z,6.30
2023-03-06T03:23:04.019Z,6.20
2023-03-06T03:25:34.929Z,6.20
2023-03-06T03:28:08.973Z,6.30
2023-03-06T03:30:41.746Z,6.20
2023-03-06T03:33:13.907Z,6.20
2023-03-06T03:35:44.964Z,6.20
2023-03-06T03:38:16.196Z,6.30
2023-03-06T03:40:47.515Z,6.20
2023-03-06T03:43:21.743Z,6.20
2023-03-06T03:45:52.428Z,6.20
2023-03-06T03:48:23.884Z,6.20
2023-03-06T03:50:55.532Z,6.20
2023-03-06T03:53:27.920Z,6.20
2023-03-06T03:55:58.752Z,6.20
2023-03-06T03:58:32.634Z,6.20
2023-03-06T04:01:03.672Z,6.20
2023-03-06T04:03:35.039Z,6.20
2023-03-06T04:06:06.696Z,6.20
2023-03-06T04:08:37.585Z,6.10
2023-03-06T04:11:09.225Z,6.10
2023-03-06T04:13:43.041Z,6.00
2023-03-06T04:16:14.352Z,6.10
2023-03-06T04:18:46.330Z,6.10
2023-03-06T04:21:17.900Z,6.20
2023-03-06T04:23:48.396Z,6.10
2023-03-06T04:26:19.304Z,6.10
2023-03-06T04:28:52.440Z,6.10
2023-03-06T04:31:24.850Z,6.10
2023-03-06T04:33:55.640Z,6.10
2023-03-06T04:36:31.204Z,6.10
2023-03-06T04:39:06.439Z,6.00
2023-03-06T04:41:38.254Z,6.00
2023-03-06T04:44:11.715Z,6.00
2023-03-06T04:46:42.049Z,6.00
2023-03-06T04:49:12.394Z,6.00
2023-03-06T04:51:42.857Z,6.00
2023-03-06T04:54:13.203Z,6.10
2023-03-06T04:56:43.734Z,6.00
2023-03-06T04:59:16.689Z,5.90
2023-03-06T05:01:47.275Z,6.00
2023-03-06T05:04:17.636Z,5.90
2023-03-06T05:06:48.003Z,6.00
2023-03-06T05:09:18.349Z,5.90
2023-03-06T05:11:48.730Z,5.90
2023-03-06T05:14:21.733Z,5.90
2023-03-06T05:16:52.206Z,5.90
2023-03-06T05:19:22.517Z,6.00
2023-03-06T05:21:53.015Z,5.90
2023-03-06T05:24:23.394Z,5.90
2023-03-06T05:26:53.889Z,6.00
2023-03-06T05:29:26.835Z,5.90
2023-03-06T05:31:59.079Z,5.90
2023-03-06T05:34:29.442Z,5.90
2023-03-06T05:37:00.862Z,5.90
2023-03-06T05:39:31.562Z,5.80
2023-03-06T05:42:02.037Z,5.80
2023-03-06T05:44:37.582Z,5.90
2023-03-06T05:47:08.392Z,5.90
2023-03-06T05:49:39.835Z,5.80
2023-03-06T05:52:11.325Z,5.80
2023-03-06T05:54:41.890Z,5.80
2023-03-06T05:57:12.235Z,5.80
2023-03-06T05:59:46.419Z,5.80
2023-03-06T06:02:17.133Z,5.80
2023-03-06T06:04:47.588Z,5.80
2023-03-06T06:07:20.052Z,5.80
2023-03-06T06:09:50.400Z,5.70
2023-03-06T06:12:20.842Z,5.80
2023-03-06T06:14:53.812Z,5.80
2023-03-06T06:17:24.199Z,5.80
2023-03-06T06:19:54.972Z,5.80
2023-03-06T06:22:25.362Z,5.80
2023-03-06T06:24:55.727Z,5.60
2023-03-06T06:27:26.031Z,5.80
2023-03-06T06:29:58.958Z,5.70
2023-03-06T06:32:29.441Z,5.70
2023-03-06T06:35:00.625Z,5.70
2023-03-06T06:37:31.165Z,5.60
2023-03-06T06:40:01.517Z,5.60
2023-03-06T06:42:38.255Z,5.60
2023-03-06T06:45:14.354Z,5.60
2023-03-06T06:47:44.912Z,5.60
2023-03-06T06:50:16.584Z,5.60
2023-03-06T06:52:46.885Z,5.60
2023-03-06T06:55:18.807Z,5.50
2023-03-06T06:57:49.910Z,5.50
2023-03-06T07:00:24.617Z,5.50
2023-03-06T07:02:55.139Z,5.50
2023-03-06T07:05:26.277Z,5.60
2023-03-06T07:07:56.814Z,5.60
2023-03-06T07:10:28.100Z,5.60
2023-03-06T07:12:58.437Z,5.60
2023-03-06T07:15:32.197Z,5.50
2023-03-06T07:18:02.537Z,5.60
2023-03-06T07:20:32.949Z,5.60
2023-03-06T07:23:03.319Z,5.70
2023-03-06T07:25:33.798Z,5.60
2023-03-06T07:28:04.102Z,5.60
2023-03-06T07:30:37.100Z,5.60
2023-03-06T07:33:07.614Z,5.70
2023-03-06T07:35:38.400Z,5.60
2023-03-06T07:38:08.817Z,5.80
2023-03-06T07:40:39.256Z,5.70
2023-03-06T07:43:19.046Z,5.70
2023-03-06T07:46:02.960Z,5.70
2023-03-06T07:48:33.267Z,5.70
2023-03-06T07:51:05.472Z,5.80
2023-03-06T07:53:37.513Z,5.70
2023-03-06T07:56:09.527Z,5.80
2023-03-06T07:58:40.843Z,5.80
2023-03-06T08:01:19.971Z,5.80
2023-03-06T08:03:51.148Z,5.80
2023-03-06T08:06:23.632Z,5.80
2023-03-06T08:08:55.726Z,5.90
2023-03-06T08:11:29.146Z,5.90
2023-03-06T08:14:00.184Z,5.80
2023-03-06T08:16:34.002Z,6.00
2023-03-06T08:19:04.324Z,5.90
2023-03-06T08:21:34.657Z,5.90
2023-03-06T08:24:06.288Z,6.00
2023-03-06T08:26:37.471Z,6.00
2023-03-06T08:29:08.270Z,6.00
2023-03-06T08:31:42.922Z,6.10
2023-03-06T08:34:15.901Z,6.10
2023-03-06T08:36:46.349Z,6.10
2023-03-06T08:39:17.211Z,6.20
2023-03-06T08:41:48.073Z,6.10
2023-03-06T08:44:18.525Z,6.20
2023-03-06T08:46:51.452Z,6.20
2023-03-06T08:49:21.752Z,6.40
2023-03-06T08:51:52.052Z,6.20
2023-03-06T08:54:22.325Z,6.30
2023-03-06T08:56:52.874Z,6.30
2023-03-06T08:59:24.841Z,6.20
2023-03-06T09:01:57.852Z,6.20
2023-03-06T09:04:28.191Z,6.30
2023-03-06T09:07:01.256Z,6.30
2023-03-06T09:09:31.721Z,6.50
2023-03-06T09:12:01.992Z,6.40
2023-03-06T09:14:32.347Z,6.40
2023-03-06T09:17:05.280Z,6.40
2023-03-06T09:19:35.606Z,6.50
2023-03-06T09:22:05.863Z,6.50
2023-03-06T09:24:36.426Z,6.50
2023-03-06T09:27:07.062Z,6.80
2023-03-06T09:29:37.292Z,6.70
2023-03-06T09:32:12.190Z,6.60
2023-03-06T09:34:42.633Z,6.60
2023-03-06T09:37:13.038Z,6.60
2023-03-06T09:39:43.278Z,6.70
2023-03-06T09:42:18.908Z,6.60
2023-03-06T09:44:54.454Z,6.70
2023-03-06T09:47:48.130Z,6.60
2023-03-06T09:50:40.045Z,6.70
2023-03-06T09:53:41.418Z,6.70
2023-03-06T09:56:18.069Z,6.80
2023-03-06T09:58:52.800Z,6.80
2023-03-06T10:01:26.169Z,6.80
2023-03-06T10:04:08.499Z,6.90
2023-03-06T10:06:49.177Z,6.90
2023-03-06T10:09:23.069Z,6.90
2023-03-06T10:12:01.380Z,6.90
2023-03-06T10:14:38.029Z,7.00
2023-03-06T10:17:09.266Z,6.90
2023-03-06T10:19:42.613Z,6.90
2023-03-06T10:22:26.390Z,7.00
2023-03-06T10:25:05.366Z,7.00
2023-03-06T10:27:45.474Z,7.00
2023-03-06T10:30:28.813Z,7.00
2023-03-06T10:33:01.331Z,7.10
2023-03-06T10:35:41.625Z,7.00
2023-03-06T10:38:21.648Z,7.00
2023-03-06T10:41:08.434Z,7.10
2023-03-06T10:43:39.472Z,7.10
2023-03-06T10:46:15.344Z,7.10
2023-03-06T10:48:46.629Z,7.10
2023-03-06T10:51:30.134Z,7.20
2023-03-06T10:54:03.060Z,7.30
2023-03-06T10:56:36.472Z,7.30
2023-03-06T10:59:13.876Z,7.40
2023-03-06T11:01:45.908Z,7.30
2023-03-06T11:04:25.651Z,7.30
2023-03-06T11:07:18.206Z,7.30
2023-03-06T11:10:02.504Z,7.40
2023-03-06T11:12:34.999Z,7.40
2023-03-06T11:15:23.838Z,7.50
2023-03-06T11:18:00.560Z,7.40
2023-03-06T11:20:50.008Z,7.40
2023-03-06T11:23:31.381Z,7.50
2023-03-06T11:26:06.869Z,7.60
2023-03-06T11:28:41.219Z,7.70
2023-03-06T11:31:16.866Z,7.80
2023-03-06T11:33:54.856Z,7.70
2023-03-06T11:36:32.324Z,7.80
2023-03-06T11:39:07.566Z,7.70
2023-03-06T11:41:49.660Z,7.70
2023-03-06T11:44:26.470Z,7.80
2023-03-06T11:47:06.016Z,7.80
2023-03-06T11:49:43.624Z,7.70
2023-03-06T11:52:24.808Z,7.80
2023-03-06T11:55:00.553Z,7.80
2023-03-06T11:57:42.215Z,7.80
2023-03-06T12:00:32.033Z,7.70
2023-03-06T12:03:33.857Z,7.70
2023-03-06T12:06:07.526Z,7.70
2023-03-06T12:08:49.959Z,7.60
2023-03-06T12:11:27.291Z,7.60
2023-03-06T12:14:09.912Z,7.50
2023-03-06T12:16:55.927Z,7.50
2023-03-06T12:19:42.471Z,7.50
2023-03-06T12:22:53.287Z,7.50
2023-03-06T12:25:49.223Z,7.50
2023-03-06T12:28:43.421Z,7.60
2023-03-06T12:31:26.668Z,7.60
2023-03-06T12:34:17.989Z,7.80
2023-03-06T12:37:00.506Z,7.70
2023-03-06T12:39:42.931Z,7.70
2023-03-06T12:42:29.575Z,7.60
2023-03-06T12:45:30.538Z,7.70
2023-03-06T12:48:04.284Z,7.70
2023-03-06T12:50:37.172Z,7.60
2023-03-06T12:53:10.743Z,7.60
2023-03-06T12:55:44.381Z,7.50
2023-03-06T12:58:51.814Z,7.60
2023-03-06T13:01:40.933Z,7.60
2023-03-06T13:04:36.793Z,7.60
2023-03-06T13:07:27.937Z,7.60
2023-03-06T13:10:12.125Z,7.60
2023-03-06T13:12:56.065Z,7.60
2023-03-06T13:15:43.120Z,7.70
2023-03-06T13:18:43.344Z,7.60
2023-03-06T13:21:43.394Z,7.60
2023-03-06T13:24:22.387Z,7.70
2023-03-06T13:26:57.445Z,7.90
2023-03-06T13:29:54.450Z,7.70
2023-03-06T13:32:34.399Z,7.80
2023-03-06T13:35:05.363Z,7.90
2023-03-06T13:37:52.748Z,7.90
2023-03-06T13:40:39.186Z,7.80
2023-03-06T13:43:25.506Z,7.90
2023-03-06T13:45:56.046Z,8.00
2023-03-06T13:48:47.710Z,7.90
2023-03-06T13:51:26.550Z,8.00
2023-03-06T13:54:28.956Z,8.20
2023-03-06T13:57:22.787Z,8.10
2023-03-06T14:00:28.581Z,8.10
2023-03-06T14:03:29.043Z,8.10
2023-03-06T14:06:00.008Z,8.10
2023-03-06T14:08:33.768Z,8.10
2023-03-06T14:11:09.020Z,8.40
2023-03-06T14:13:49.127Z,8.30
2023-03-06T14:16:23.511Z,8.30
2023-03-06T14:18:56.633Z,8.50
2023-03-06T14:21:32.243Z,8.60
2023-03-06T14:24:05.195Z,8.60
2023-03-06T14:26:37.082Z,8.40
2023-03-06T14:29:23.435Z,8.60
2023-03-06T14:31:55.989Z,8.80
2023-03-06T14:34:28.809Z,8.80
2023-03-06T14:37:02.958Z,8.80
2023-03-06T14:39:38.130Z,8.60
2023-03-06T14:42:10.376Z,8.70
2023-03-06T14:44:43.364Z,8.70
2023-03-06T14:47:35.749Z,8.70
2023-03-06T14:50:26.414Z,8.80
2023-03-06T14:53:00.697Z,8.80
2023-03-06T14:55:33.421Z,8.80
2023-03-06T14:58:06.623Z,8.60
2023-03-06T15:00:43.923Z,8.80
2023-03-06T15:03:20.181Z,8.70
2023-03-06T15:05:51.937Z,8.70
2023-03-06T15:08:25.687Z,8.80
2023-03-06T15:11:01.604Z,8.80
2023-03-06T15:13:34.174Z,8.80
2023-03-06T15:16:09.022Z,8.70
2023-03-06T15:18:41.857Z,8.70
2023-03-06T15:21:19.722Z,8.70
2023-03-06T15:23:52.570Z,8.70
2023-03-06T15:26:34.992Z,8.70
2023-03-06T15:29:24.518Z,8.70
2023-03-06T15:32:17.008Z,8.50
2023-03-06T15:34:47.729Z,8.70
2023-03-06T15:37:31.528Z,8.60
2023-03-06T15:40:09.626Z,8.70
2023-03-06T15:42:40.184Z,8.60
2023-03-06T15:45:19.084Z,8.50
2023-03-06T15:47:54.852Z,8.50
2023-03-06T15:50:26.649Z,8.50
2023-03-06T15:52:57.552Z,8.50
2023-03-06T15:55:28.860Z,8.50
2023-03-06T15:58:02.252Z,8.50
2023-03-06T16:00:35.970Z,8.50
2023-03-06T16:03:08.963Z,8.40
2023-03-06T16:05:39.297Z,8.40
2023-03-06T16:08:11.065Z,8.40
2023-03-06T16:10:43.744Z,8.50
2023-03-06T16:13:18.640Z,8.30
2023-03-06T16:15:51.884Z,8.30
2023-03-06T16:18:24.758Z,8.40
2023-03-06T16:20:55.041Z,8.30
2023-03-06T16:23:25.492Z,8.30
2023-03-06T16:25:56.372Z,8.30
2023-03-06T16:28:27.966Z,8.20
2023-03-06T16:30:58.317Z,8.30
2023-03-06T16:33:31.221Z,8.20
2023-03-06T16:36:01.429Z,8.30
2023-03-06T16:38:31.661Z,8.20
2023-03-06T16:41:01.939Z,8.20
2023-03-06T16:43:32.248Z,8.20
2023-03-06T16:46:02.560Z,8.20
2023-03-06T16:48:35.924Z,8.20
2023-03-06T16:51:06.307Z,8.20
2023-03-06T16:53:36.794Z,8.20
2023-03-06T16:56:07.335Z,8.20
2023-03-06T16:58:37.602Z,8.20
2023-03-06T17:01:08.202Z,8.20
2023-03-06T17:03:41.323Z,8.10
2023-03-06T17:06:17.360Z,8.10
2023-03-06T17:08:48.592Z,8.10
2023-03-06T17:11:20.488Z,8.20
2023-03-06T17:13:51.275Z,8.10
2023-03-06T17:16:21.695Z,8.10
2023-03-06T17:18:54.612Z,8.10
2023-03-06T17:21:26.733Z,8.10
2023-03-06T17:23:57.311Z,8.00
2023-03-06T17:26:27.900Z,8.00
2023-03-06T17:28:58.422Z,8.00
2023-03-06T17:31:30.328Z,8.00
2023-03-06T17:34:03.251Z,8.00
2023-03-06T17:36:34.918Z,8.00
2023-03-06T17:39:06.225Z,8.00
2023-03-06T17:41:36.500Z,8.00
2023-03-06T17:44:06.947Z,8.00
2023-03-06T17:46:37.533Z,7.90
2023-03-06T17:49:10.485Z,8.00
2023-03-06T17:51:40.725Z,7.90
2023-03-06T17:54:11.059Z,8.00
2023-03-06T17:56:41.352Z,7.90
2023-03-06T17:59:12.002Z,7.90
2023-03-06T18:01:43.619Z,7.80
2023-03-06T18:04:17.039Z,7.80
2023-03-06T18:06:47.336Z,7.90
2023-03-06T18:09:17.834Z,7.70
2023-03-06T18:11:48.149Z,7.80
2023-03-06T18:14:18.458Z,7.70
2023-03-06T18:16:49.231Z,7.70
2023-03-06T18:19:22.045Z,7.70
2023-03-06T18:21:52.480Z,7.70
2023-03-06T18:24:23.601Z,7.80
2023-03-06T18:26:54.097Z,7.60
2023-03-06T18:29:24.488Z,7.60
2023-03-06T18:31:56.513Z,7.60
2023-03-06T18:34:29.450Z,7.50
2023-03-06T18:36:59.703Z,7.30
2023-03-06T18:39:30.015Z,7.40
2023-03-06T18:42:00.328Z,7.40
2023-03-06T18:44:30.786Z,7.40
2023-03-06T18:47:01.023Z,7.40
2023-03-06T18:49:34.023Z,7.30
2023-03-06T18:52:04.249Z,7.30
2023-03-06T18:54:34.540Z,7.30
2023-03-06T18:57:04.821Z,7.30
2023-03-06T18:59:35.261Z,7.30
2023-03-06T19:02:05.922Z,7.20
2023-03-06T19:04:40.521Z,7.30
2023-03-06T19:07:10.847Z,7.30
2023-03-06T19:09:42.880Z,7.20
2023-03-06T19:12:13.698Z,7.20
2023-03-06T19:14:43.996Z,7.20
2023-03-06T19:17:14.330Z,7.20
2023-03-06T19:19:47.391Z,7.20
2023-03-06T19:22:17.694Z,7.10
2023-03-06T19:24:50.194Z,7.20
2023-03-06T19:27:20.511Z,7.10
2023-03-06T19:29:50.823Z,7.20
2023-03-06T19:32:22.446Z,7.10
2023-03-06T19:34:58.764Z,7.20
2023-03-06T19:37:29.224Z,7.10
2023-03-06T19:40:01.536Z,7.10
2023-03-06T19:42:31.829Z,7.10
2023-03-06T19:45:02.096Z,7.10
2023-03-06T19:47:32.413Z,7.30
2023-03-06T19:50:05.419Z,7.20
2023-03-06T19:52:39.348Z,7.20
2023-03-06T19:55:11.478Z,7.10
2023-03-06T19:57:41.733Z,7.20
2023-03-06T20:00:14.963Z,7.10
2023-03-06T20:02:45.574Z,7.10
2023-03-06T20:05:18.914Z,7.20
2023-03-06T20:07:49.202Z,7.20
2023-03-06T20:10:20.248Z,7.20
2023-03-06T20:12:50.544Z,7.20
2023-03-06T20:15:22.372Z,7.20
2023-03-06T20:17:52.624Z,7.20
2023-03-06T20:20:25.617Z,7.20
2023-03-06T20:22:55.866Z,7.20
2023-03-06T20:25:26.598Z,7.20
2023-03-06T20:27:56.933Z,7.30
2023-03-06T20:30:36.683Z,7.20
2023-03-06T20:33:08.314Z,7.20
2023-03-06T20:35:43.182Z,7.20
2023-03-06T20:38:13.802Z,7.20
2023-03-06T20:40:45.391Z,7.10
2023-03-06T20:43:16.128Z,7.10
2023-03-06T20:45:58.034Z,7.10
2023-03-06T20:48:28.417Z,7.10
2023-03-06T20:51:11.924Z,7.10
2023-03-06T20:53:42.502Z,7.10
2023-03-06T20:56:15.735Z,7.00
2023-03-06T20:58:46.280Z,7.00
2023-03-06T21:01:22.449Z,7.10
2023-03-06T21:03:53.675Z,7.10
2023-03-06T21:06:26.945Z,7.00
2023-03-06T21:08:57.478Z,7.00
2023-03-06T21:11:28.096Z,7.00
2023-03-06T21:13:59.259Z,7.00
2023-03-06T21:16:31.047Z,6.90
2023-03-06T21:19:02.856Z,7.00
2023-03-06T21:21:37.572Z,6.90
2023-03-06T21:24:08.289Z,7.00
2023-03-06T21:26:38.623Z,6.90
2023-03-06T21:29:09.320Z,6.90
2023-03-06T21:31:40.474Z,6.90
2023-03-06T21:34:11.664Z,6.90
2023-03-06T21:36:44.682Z,6.90
2023-03-06T21:39:14.926Z,6.90
2023-03-06T21:41:45.129Z,6.80
2023-03-06T21:44:15.410Z,6.90
2023-03-06T21:46:45.624Z,6.90
2023-03-06T21:49:16.005Z,7.00
2023-03-06T21:51:48.823Z,7.10
2023-03-06T21:54:19.039Z,6.80
2023-03-06T21:56:49.332Z,6.80
2023-03-06T21:59:19.581Z,6.70
2023-03-06T22:01:49.849Z,6.80
2023-03-06T22:04:20.121Z,6.70
2023-03-06T22:06:53.020Z,6.70
2023-03-06T22:09:23.289Z,6.80
2023-03-06T22:11:53.547Z,6.80
2023-03-06T22:14:23.834Z,6.80
2023-03-06T22:16:54.288Z,6.80
2023-03-06T22:19:24.602Z,6.70
2023-03-06T22:21:57.619Z,6.70
2023-03-06T22:24:27.966Z,6.80
2023-03-06T22:26:58.297Z,6.80
2023-03-06T22:29:28.796Z,6.90
2023-03-06T22:31:59.069Z,6.90
2023-03-06T22:34:29.489Z,6.70
2023-03-06T22:37:02.450Z,6.70
2023-03-06T22:39:32.685Z,6.60
2023-03-06T22:42:02.902Z,6.60
2023-03-06T22:44:33.170Z,6.60
2023-03-06T22:47:03.783Z,6.60
2023-03-06T22:49:34.271Z,6.60
2023-03-06T22:52:07.262Z,6.70
2023-03-06T22:54:37.695Z,6.60
2023-03-06T22:57:08.569Z,6.50
2023-03-06T22:59:38.932Z,6.50
2023-03-06T23:02:09.178Z,6.50
2023-03-06T23:04:39.612Z,6.60
2023-03-06T23:07:12.495Z,6.50
2023-03-06T23:09:42.778Z,6.60
2023-03-06T23:12:34.744Z,6.60
2023-03-06T23:15:23.720Z,6.60
2023-03-06T23:18:12.798Z,6.50
2023-03-06T23:21:01.967Z,6.60
2023-03-06T23:23:55.279Z,6.60
2023-03-06T23:26:27.198Z,6.70
2023-03-06T23:28:58.010Z,6.70
2023-03-06T23:31:30.019Z,6.60
2023-03-06T23:34:01.391Z,6.50
2023-03-06T23:36:32.869Z,6.50
2023-03-06T23:39:05.881Z,6.50
2023-03-06T23:41:36.265Z,6.50
2023-03-06T23:44:06.742Z,6.60
2023-03-06T23:46:37.230Z,6.50
2023-03-06T23:49:08.133Z,6.50
2023-03-06T23:51:38.379Z,6.50
2023-03-06T23:54:13.339Z,6.50
2023-03-06T23:56:43.611Z,6.50
2023-03-06T23:59:14.232Z,6.50
